createdAt,value
2023-05-25T00:01:34.409Z,101691.84
2023-05-25T00:04:02.992Z,101704.97
2023-05-25T00:06:31.053Z,101695.19
2023-05-25T00:08:59.197Z,101699.53
2023-05-25T00:11:28.835Z,101699.50
2023-05-25T00:13:56.567Z,101703.00
2023-05-25T00:16:24.401Z,101700.31
2023-05-25T00:18:53.238Z,101702.09
2023-05-25T00:21:21.138Z,101701.16
2023-05-25T00:23:48.952Z,101706.41
2023-05-25T00:26:16.721Z,101699.34
2023-05-25T00:28:45.867Z,101703.75
2023-05-25T00:31:13.938Z,101707.19
2023-05-25T00:33:42.148Z,101704.50
2023-05-25T00:36:10.267Z,101700.94
2023-05-25T00:38:38.443Z,101693.78
2023-05-25T00:41:07.293Z,101695.50
2023-05-25T00:43:35.825Z,101700.75
2023-05-25T00:46:05.129Z,101688.31
2023-05-25T00:48:34.145Z,101691.00
2023-05-25T00:51:02.137Z,101686.50
2023-05-25T00:53:30.009Z,101686.47
2023-05-25T00:56:05.698Z,101679.38
2023-05-25T00:58:37.365Z,101686.31
2023-05-25T01:01:11.836Z,101687.16
2023-05-25T01:03:45.848Z,101680.03
2023-05-25T01:06:17.043Z,101679.97
2023-05-25T01:08:51.049Z,101678.97
2023-05-25T01:11:23.167Z,101685.09
2023-05-25T01:13:53.791Z,101681.47
2023-05-25T01:16:23.558Z,101684.03
2023-05-25T01:18:52.798Z,101679.50
2023-05-25T01:21:27.161Z,101682.94
2023-05-25T01:24:03.196Z,101695.16
2023-05-25T01:26:38.218Z,101689.84
2023-05-25T01:29:07.598Z,101696.81
2023-05-25T01:31:37.299Z,101695.84
2023-05-25T01:34:06.765Z,101694.91
2023-05-25T01:36:35.961Z,101694.84
2023-05-25T01:39:06.983Z,101696.50
2023-05-25T01:41:35.402Z,101691.19
2023-05-25T01:44:03.356Z,101691.97
2023-05-25T01:46:37.007Z,101684.00
2023-05-25T01:49:23.570Z,101684.88
2023-05-25T01:52:01.665Z,101679.50
2023-05-25T01:54:37.402Z,101682.91
2023-05-25T01:57:08.965Z,101687.25
2023-05-25T01:59:39.711Z,101692.44
2023-05-25T02:02:08.610Z,101684.50
2023-05-25T02:04:37.138Z,101672.19
2023-05-25T02:07:06.769Z,101676.53
2023-05-25T02:09:34.710Z,101679.06
2023-05-25T02:12:02.500Z,101683.41
2023-05-25T02:14:30.448Z,101681.56
2023-05-25T02:17:01.966Z,101682.44
2023-05-25T02:19:29.918Z,101683.25
2023-05-25T02:21:58.489Z,101688.22
2023-05-25T02:24:28.166Z,101689.00
2023-05-25T02:26:56.175Z,101691.59
2023-05-25T02:29:23.973Z,101693.22
2023-05-25T02:31:52.053Z,101692.34
2023-05-25T02:34:19.891Z,101699.22
2023-05-25T02:36:47.888Z,101695.72
2023-05-25T02:39:15.788Z,101695.66
2023-05-25T02:41:45.527Z,101688.59
2023-05-25T02:44:13.403Z,101699.16
2023-05-25T02:46:41.370Z,101692.06
2023-05-25T02:49:09.487Z,101702.47
2023-05-25T02:51:38.090Z,101697.91
2023-05-25T02:54:06.896Z,101696.91
2023-05-25T02:56:35.052Z,101694.09
2023-05-25T02:59:05.599Z,101704.66
2023-05-25T03:01:35.107Z,101699.31
2023-05-25T03:04:03.382Z,101721.31
2023-05-25T03:06:38.055Z,101724.78
2023-05-25T03:09:16.451Z,101712.44
2023-05-25T03:11:45.187Z,101701.91
2023-05-25T03:14:19.385Z,101715.94
2023-05-25T03:16:54.853Z,101712.31
2023-05-25T03:19:24.438Z,101721.03
2023-05-25T03:21:52.237Z,101717.47
2023-05-25T03:24:20.561Z,101717.47
2023-05-25T03:26:49.012Z,101716.59
2023-05-25T03:29:18.784Z,101713.09
2023-05-25T03:31:47.227Z,101714.00
2023-05-25T03:34:15.164Z,101726.31
2023-05-25T03:36:45.961Z,101724.63
2023-05-25T03:39:14.867Z,101741.25
2023-05-25T03:41:44.251Z,101749.97
2023-05-25T03:44:12.502Z,101755.25
2023-05-25T03:46:42.671Z,101753.56
2023-05-25T03:49:14.166Z,101753.56
2023-05-25T03:51:42.400Z,101761.56
2023-05-25T03:54:10.448Z,101765.16
2023-05-25T03:56:38.445Z,101765.31
2023-05-25T03:59:06.585Z,101762.75
2023-05-25T04:01:38.196Z,101758.41
2023-05-25T04:04:07.510Z,101753.19
2023-05-25T04:06:37.282Z,101762.00
2023-05-25T04:09:05.768Z,101748.81
2023-05-25T04:11:34.494Z,101756.81
2023-05-25T04:14:02.388Z,101763.91
2023-05-25T04:16:33.529Z,101777.19
2023-05-25T04:19:02.469Z,101772.91
2023-05-25T04:21:32.342Z,101765.13
2023-05-25T04:24:01.466Z,101772.34
2023-05-25T04:26:30.228Z,101772.50
2023-05-25T04:29:02.021Z,101765.75
2023-05-25T04:31:54.774Z,101767.75
2023-05-25T04:34:42.377Z,101774.16
2023-05-25T04:37:18.020Z,101783.28
2023-05-25T04:39:46.573Z,101780.88
2023-05-25T04:42:14.545Z,101790.88
2023-05-25T04:44:42.557Z,101793.81
2023-05-25T04:47:11.394Z,101788.81
2023-05-25T04:49:40.022Z,101795.25
2023-05-25T04:52:09.774Z,101805.19
2023-05-25T04:54:42.056Z,101791.47
2023-05-25T04:57:10.810Z,101786.53
2023-05-25T04:59:38.629Z,101793.88
2023-05-25T05:02:06.901Z,101790.63
2023-05-25T05:04:34.878Z,101784.75
2023-05-25T05:07:03.584Z,101796.44
2023-05-25T05:09:32.316Z,101798.53
2023-05-25T05:12:03.558Z,101798.84
2023-05-25T05:14:36.705Z,101800.88
2023-05-25T05:17:04.706Z,101800.25
2023-05-25T05:19:33.215Z,101796.06
2023-05-25T05:22:01.043Z,101801.66
2023-05-25T05:24:28.956Z,101794.81
2023-05-25T05:26:59.118Z,101791.56
2023-05-25T05:29:34.270Z,101805.09
2023-05-25T05:32:02.123Z,101800.97
2023-05-25T05:34:30.736Z,101807.41
2023-05-25T05:37:00.137Z,101808.53
2023-05-25T05:39:29.277Z,101795.47
2023-05-25T05:41:57.306Z,101793.03
2023-05-25T05:44:28.636Z,101805.69
2023-05-25T05:47:01.737Z,101804.13
2023-05-25T05:49:31.770Z,101803.44
2023-05-25T05:52:01.109Z,101815.97
2023-05-25T05:54:28.831Z,101815.22
2023-05-25T05:56:59.856Z,101817.13
2023-05-25T05:59:27.514Z,101805.78
2023-05-25T06:01:56.162Z,101820.09
2023-05-25T06:04:28.779Z,101821.13
2023-05-25T06:06:57.368Z,101818.66
2023-05-25T06:09:26.444Z,101811.78
2023-05-25T06:11:54.439Z,101827.84
2023-05-25T06:14:22.803Z,101825.31
2023-05-25T06:16:51.207Z,101826.34
2023-05-25T06:19:27.228Z,101827.38
2023-05-25T06:21:57.435Z,101823.97
2023-05-25T06:24:31.498Z,101841.00
2023-05-25T06:27:05.565Z,101834.06
2023-05-25T06:29:38.229Z,101826.22
2023-05-25T06:32:19.986Z,101840.53
2023-05-25T06:35:02.413Z,101835.28
2023-05-25T06:37:38.283Z,101832.72
2023-05-25T06:40:10.688Z,101839.81
2023-05-25T06:42:40.820Z,101854.09
2023-05-25T06:45:32.429Z,101849.75
2023-05-25T06:48:08.070Z,101835.66
2023-05-25T06:50:46.126Z,101847.28
2023-05-25T06:53:22.970Z,101834.13
2023-05-25T06:55:54.089Z,101836.00
2023-05-25T06:58:25.285Z,101843.25
2023-05-25T07:00:53.527Z,101839.78
2023-05-25T07:03:26.437Z,101840.78
2023-05-25T07:06:00.315Z,101845.28
2023-05-25T07:08:30.534Z,101841.81
2023-05-25T07:10:58.678Z,101848.09
2023-05-25T07:13:27.421Z,101849.03
2023-05-25T07:16:05.687Z,101836.75
2023-05-25T07:18:50.481Z,101849.28
2023-05-25T07:21:21.620Z,101844.06
2023-05-25T07:23:52.973Z,101845.91
2023-05-25T07:29:17.674Z,101845.22
2023-05-25T07:31:49.100Z,101842.63
2023-05-25T07:34:18.138Z,101848.03
2023-05-25T07:36:47.285Z,101841.88
2023-05-25T07:39:23.701Z,101839.28
2023-05-25T07:42:04.975Z,101847.28
2023-05-25T07:44:33.389Z,101846.38
2023-05-25T07:47:04.139Z,101851.78
2023-05-25T07:49:47.989Z,101850.06
2023-05-25T07:52:19.104Z,101851.97
2023-05-25T07:54:52.805Z,101838.69
2023-05-25T07:57:29.974Z,101848.50
2023-05-25T08:00:09.490Z,101843.16
2023-05-25T08:02:42.242Z,101850.28
2023-05-25T08:05:14.142Z,101844.97
2023-05-25T08:07:54.923Z,101849.41
2023-05-25T08:10:31.709Z,101853.91
2023-05-25T08:13:22.720Z,101854.78
2023-05-25T08:15:51.673Z,101850.31
2023-05-25T08:18:23.165Z,101853.00
2023-05-25T08:20:54.303Z,101856.56
2023-05-25T08:23:27.531Z,101866.31
2023-05-25T08:25:58.218Z,101847.53
2023-05-25T08:28:45.734Z,101855.50
2023-05-25T08:31:22.873Z,101853.69
2023-05-25T08:33:56.361Z,101857.19
2023-05-25T08:36:38.812Z,101850.84
2023-05-25T08:39:21.206Z,101860.63
2023-05-25T08:41:54.561Z,101855.28
2023-05-25T08:44:25.048Z,101846.25
2023-05-25T08:47:00.284Z,101848.81
2023-05-25T08:49:32.078Z,101851.38
2023-05-25T08:52:09.152Z,101845.94
2023-05-25T08:54:40.281Z,101847.72
2023-05-25T08:57:26.103Z,101854.78
2023-05-25T09:00:01.902Z,101847.47
2023-05-25T09:02:37.989Z,101850.00
2023-05-25T09:05:18.555Z,101862.31
2023-05-25T09:07:51.713Z,101857.69
2023-05-25T09:10:27.683Z,101856.66
2023-05-25T09:12:57.748Z,101859.22
2023-05-25T09:15:30.171Z,101862.75
2023-05-25T09:18:05.375Z,101865.25
2023-05-25T09:20:34.205Z,101862.28
2023-05-25T09:23:03.292Z,101859.50
2023-05-25T09:25:37.972Z,101863.97
2023-05-25T09:30:43.549Z,101869.31
2023-05-25T09:33:17.978Z,101863.00
2023-05-25T09:36:03.989Z,101863.78
2023-05-25T09:38:32.112Z,101868.28
2023-05-25T09:41:00.704Z,101864.66
2023-05-25T09:43:41.943Z,101866.13
2023-05-25T09:46:18.887Z,101868.34
2023-05-25T09:48:57.974Z,101864.34
2023-05-25T09:51:27.186Z,101874.81
2023-05-25T09:53:55.576Z,101869.94
2023-05-25T09:56:34.294Z,101870.44
2023-05-25T09:59:06.288Z,101876.47
2023-05-25T10:01:38.628Z,101881.88
2023-05-25T10:04:20.459Z,101885.03
2023-05-25T10:06:51.220Z,101885.38
2023-05-25T10:09:19.975Z,101882.81
2023-05-25T10:11:57.042Z,101879.00
2023-05-25T10:14:34.221Z,101884.06
2023-05-25T10:17:08.143Z,101873.69
2023-05-25T10:19:44.695Z,101874.66
2023-05-25T10:22:22.265Z,101875.41
2023-05-25T10:24:59.569Z,101875.72
2023-05-25T10:27:52.176Z,101873.19
2023-05-25T10:30:27.045Z,101879.34
2023-05-25T10:33:00.812Z,101874.97
2023-05-25T10:35:46.732Z,101879.63
2023-05-25T10:38:20.247Z,101879.16
2023-05-25T10:40:51.206Z,101870.53
2023-05-25T10:43:35.252Z,101882.03
2023-05-25T10:46:15.313Z,101868.75
2023-05-25T10:48:52.153Z,101876.44
2023-05-25T10:51:44.104Z,101883.66
2023-05-25T10:54:26.235Z,101874.53
2023-05-25T10:57:18.164Z,101877.81
2023-05-25T10:59:50.927Z,101879.72
2023-05-25T11:02:23.297Z,101874.06
2023-05-25T11:05:31.218Z,101872.34
2023-05-25T11:07:59.984Z,101871.78
2023-05-25T11:10:54.183Z,101872.47
2023-05-25T11:13:23.708Z,101870.16
2023-05-25T11:16:17.553Z,101869.09
2023-05-25T11:18:50.363Z,101864.78
2023-05-25T11:21:23.570Z,101866.09
2023-05-25T11:23:56.196Z,101861.19
2023-05-25T11:26:26.098Z,101860.38
2023-05-25T11:28:54.632Z,101861.03
2023-05-25T11:31:24.451Z,101863.63
2023-05-25T11:34:22.121Z,101861.91
2023-05-25T11:36:49.752Z,101865.16
2023-05-25T11:39:22.291Z,101863.63
2023-05-25T11:41:54.695Z,101858.84
2023-05-25T11:44:30.151Z,101876.09
2023-05-25T11:47:01.838Z,101865.91
2023-05-25T11:49:33.738Z,101865.94
2023-05-25T11:52:06.259Z,101874.34
2023-05-25T11:54:34.634Z,101857.47
2023-05-25T11:57:03.065Z,101859.53
2023-05-25T11:59:32.497Z,101865.03
2023-05-25T12:02:01.459Z,101862.94
2023-05-25T12:04:31.132Z,101867.84
2023-05-25T12:07:06.444Z,101866.06
2023-05-25T12:09:34.823Z,101858.50
2023-05-25T12:12:05.005Z,101860.19
2023-05-25T12:14:34.992Z,101863.97
2023-05-25T12:17:02.920Z,101854.91
2023-05-25T12:19:32.183Z,101866.16
2023-05-25T12:21:59.981Z,101874.09
2023-05-25T12:24:27.802Z,101867.56
2023-05-25T12:26:57.769Z,101859.25
2023-05-25T12:29:26.537Z,101862.50
2023-05-25T12:31:54.396Z,101852.78
2023-05-25T12:34:22.367Z,101846.31
2023-05-25T12:36:53.669Z,101848.41
2023-05-25T12:39:34.843Z,101852.28
2023-05-25T12:42:03.566Z,101844.16
2023-05-25T12:44:33.366Z,101846.09
2023-05-25T12:47:11.896Z,101844.03
2023-05-25T12:49:41.614Z,101834.06
2023-05-25T12:52:11.655Z,101843.44
2023-05-25T12:54:42.313Z,101844.78
2023-05-25T12:57:11.624Z,101840.44
2023-05-25T12:59:40.772Z,101837.34
2023-05-25T13:02:09.231Z,101842.34
2023-05-25T13:04:38.587Z,101837.28
2023-05-25T13:07:08.746Z,101847.59
2023-05-25T13:09:38.396Z,101841.38
2023-05-25T13:12:07.145Z,101836.03
2023-05-25T13:14:34.814Z,101841.50
2023-05-25T13:17:02.755Z,101841.19
2023-05-25T13:19:30.710Z,101840.31
2023-05-25T13:21:58.880Z,101839.81
2023-05-25T13:24:26.562Z,101836.69
2023-05-25T13:26:55.706Z,101842.00
2023-05-25T13:29:23.955Z,101841.53
2023-05-25T13:31:51.921Z,101833.56
2023-05-25T13:34:19.767Z,101842.28
2023-05-25T13:36:47.541Z,101838.25
2023-05-25T13:39:15.301Z,101836.53
2023-05-25T13:41:43.901Z,101829.94
2023-05-25T13:44:16.500Z,101832.09
2023-05-25T13:46:45.398Z,101829.44
2023-05-25T13:49:15.238Z,101820.59
2023-05-25T13:51:44.078Z,101814.66
2023-05-25T13:54:12.857Z,101819.41
2023-05-25T13:56:42.395Z,101806.28
2023-05-25T13:59:10.500Z,101818.13
2023-05-25T14:01:39.613Z,101826.81
2023-05-25T14:04:07.617Z,101826.78
2023-05-25T14:06:35.861Z,101820.19
2023-05-25T14:09:03.802Z,101813.66
2023-05-25T14:11:31.703Z,101819.94
2023-05-25T14:13:59.436Z,101818.84
2023-05-25T14:16:27.489Z,101823.56
2023-05-25T14:18:57.357Z,101811.56
2023-05-25T14:21:25.299Z,101817.00
2023-05-25T14:23:53.055Z,101817.53
2023-05-25T14:26:22.031Z,101808.38
2023-05-25T14:28:50.075Z,101809.88
2023-05-25T14:31:17.850Z,101808.94
2023-05-25T14:33:45.849Z,101803.94
2023-05-25T14:36:14.948Z,101801.69
2023-05-25T14:38:42.750Z,101803.91
2023-05-25T14:41:10.680Z,101809.56
2023-05-25T14:43:38.579Z,101810.78
2023-05-25T14:46:07.382Z,101806.91
2023-05-25T14:48:36.282Z,101811.03
2023-05-25T14:51:04.245Z,101806.44
2023-05-25T14:53:33.336Z,101813.38
2023-05-25T14:56:01.701Z,101814.28
2023-05-25T14:58:29.809Z,101811.78
2023-05-25T15:00:57.577Z,101806.19
2023-05-25T15:03:25.498Z,101812.75
2023-05-25T15:05:53.386Z,101808.25
2023-05-25T15:08:21.250Z,101814.56
2023-05-25T15:10:50.525Z,101816.81
2023-05-25T15:13:18.761Z,101813.28
2023-05-25T15:15:47.072Z,101815.78
2023-05-25T15:18:15.007Z,101815.44
2023-05-25T15:20:42.836Z,101809.06
2023-05-25T15:23:10.593Z,101811.22
2023-05-25T15:25:38.384Z,101816.50
2023-05-25T15:28:07.577Z,101809.53
2023-05-25T15:30:35.464Z,101806.91
2023-05-25T15:33:03.548Z,101795.59
2023-05-25T15:35:32.611Z,101796.56
2023-05-25T15:38:01.171Z,101801.50
2023-05-25T15:40:29.267Z,101799.06
2023-05-25T15:42:57.310Z,101796.72
2023-05-25T15:45:26.795Z,101789.34
2023-05-25T15:47:54.598Z,101798.81
2023-05-25T15:50:22.549Z,101797.16
2023-05-25T15:52:50.409Z,101795.13
2023-05-25T15:55:18.258Z,101788.56
2023-05-25T15:57:46.039Z,101792.25
2023-05-25T16:00:15.351Z,101801.31
2023-05-25T16:02:44.464Z,101797.88
2023-05-25T16:05:12.249Z,101793.88
2023-05-25T16:07:40.033Z,101797.22
2023-05-25T16:10:08.806Z,101787.81
2023-05-25T16:12:36.644Z,101792.16
2023-05-25T16:15:04.820Z,101783.94
2023-05-25T16:17:33.271Z,101788.56
2023-05-25T16:20:02.492Z,101791.50
2023-05-25T16:22:30.255Z,101778.03
2023-05-25T16:24:58.184Z,101781.50
2023-05-25T16:27:26.061Z,101782.03
2023-05-25T16:29:54.169Z,101778.69
2023-05-25T16:32:22.115Z,101777.25
2023-05-25T16:34:50.040Z,101777.50
2023-05-25T16:37:19.261Z,101772.25
2023-05-25T16:39:47.053Z,101771.66
2023-05-25T16:42:14.933Z,101763.75
2023-05-25T16:44:42.672Z,101769.34
2023-05-25T16:47:10.452Z,101762.44
2023-05-25T16:49:38.162Z,101768.13
2023-05-25T16:52:06.353Z,101758.53
2023-05-25T16:54:35.413Z,101768.78
2023-05-25T16:57:03.207Z,101761.00
2023-05-25T16:59:31.093Z,101753.22
2023-05-25T17:02:00.608Z,101763.41
2023-05-25T17:04:28.681Z,101762.81
2023-05-25T17:06:56.604Z,101758.59
2023-05-25T17:09:25.202Z,101757.03
2023-05-25T17:11:59.399Z,101758.19
2023-05-25T17:14:27.450Z,101754.00
2023-05-25T17:16:55.817Z,101756.09
2023-05-25T17:19:23.708Z,101760.78
2023-05-25T17:21:52.334Z,101756.59
2023-05-25T17:24:20.437Z,101755.13
2023-05-25T17:26:50.075Z,101758.13
2023-05-25T17:29:19.275Z,101758.34
2023-05-25T17:31:48.962Z,101762.97
2023-05-25T17:34:17.262Z,101758.69
2023-05-25T17:36:45.081Z,101751.75
2023-05-25T17:39:12.862Z,101768.09
2023-05-25T17:41:41.473Z,101765.59
2023-05-25T17:44:09.837Z,101761.28
2023-05-25T17:46:39.364Z,101764.16
2023-05-25T17:49:07.183Z,101765.22
2023-05-25T17:51:35.039Z,101761.75
2023-05-25T17:54:03.931Z,101766.34
2023-05-25T17:56:32.007Z,101769.16
2023-05-25T17:58:59.814Z,101772.81
2023-05-25T18:01:27.703Z,101768.53
2023-05-25T18:03:57.426Z,101774.88
2023-05-25T18:06:27.796Z,101765.16
2023-05-25T18:08:57.076Z,101767.06
2023-05-25T18:11:26.275Z,101759.09
2023-05-25T18:13:54.175Z,101769.00
2023-05-25T18:16:22.063Z,101770.91
2023-05-25T18:18:49.959Z,101769.25
2023-05-25T18:21:19.071Z,101766.63
2023-05-25T18:23:46.940Z,101764.94
2023-05-25T18:26:14.725Z,101772.19
2023-05-25T18:28:42.482Z,101766.03
2023-05-25T18:31:10.365Z,101772.38
2023-05-25T18:33:38.176Z,101779.63
2023-05-25T18:36:06.458Z,101775.25
2023-05-25T18:38:36.096Z,101770.88
2023-05-25T18:41:04.119Z,101778.09
2023-05-25T18:43:31.901Z,101768.38
2023-05-25T18:45:59.866Z,101773.75
2023-05-25T18:48:27.734Z,101774.72
2023-05-25T18:50:55.831Z,101775.69
2023-05-25T18:53:23.677Z,101773.91
2023-05-25T18:55:53.204Z,101773.09
2023-05-25T18:58:21.291Z,101774.03
2023-05-25T19:00:49.140Z,101775.03
2023-05-25T19:03:17.052Z,101775.06
2023-05-25T19:05:45.057Z,101778.72
2023-05-25T19:08:12.974Z,101776.09
2023-05-25T19:10:41.658Z,101785.97
2023-05-25T19:13:11.161Z,101781.56
2023-05-25T19:15:38.869Z,101779.84
2023-05-25T19:18:06.922Z,101790.63
2023-05-25T19:20:35.907Z,101793.34
2023-05-25T19:23:03.716Z,101790.75
2023-05-25T19:25:31.482Z,101780.97
2023-05-25T19:28:00.564Z,101792.63
2023-05-25T19:30:29.698Z,101795.38
2023-05-25T19:32:57.521Z,101799.88
2023-05-25T19:35:25.304Z,101799.03
2023-05-25T19:37:53.089Z,101807.06
2023-05-25T19:40:20.941Z,101807.13
2023-05-25T19:42:48.787Z,101811.63
2023-05-25T19:45:19.287Z,101804.53
2023-05-25T19:47:48.607Z,101803.69
2023-05-25T19:50:16.502Z,101808.19
2023-05-25T19:52:44.279Z,101804.63
2023-05-25T19:55:12.026Z,101821.63
2023-05-25T19:57:39.703Z,101818.97
2023-05-25T20:00:14.390Z,101811.88
2023-05-25T20:02:54.455Z,101816.34
2023-05-25T20:05:22.367Z,101826.19
2023-05-25T20:07:50.977Z,101821.75
2023-05-25T20:10:19.131Z,101820.88
2023-05-25T20:12:46.901Z,101824.47
2023-05-25T20:15:14.686Z,101827.16
2023-05-25T20:17:42.448Z,101830.72
2023-05-25T20:20:12.041Z,101824.50
2023-05-25T20:22:39.852Z,101833.38
2023-05-25T20:25:08.252Z,101827.13
2023-05-25T20:27:35.978Z,101830.72
2023-05-25T20:30:03.762Z,101820.03
2023-05-25T20:32:31.651Z,101817.38
2023-05-25T20:34:59.418Z,101806.69
2023-05-25T20:37:29.556Z,101822.72
2023-05-25T20:39:57.274Z,101820.06
2023-05-25T20:42:25.153Z,101823.59
2023-05-25T20:44:52.931Z,101822.72
2023-05-25T20:47:20.772Z,101816.47
2023-05-25T20:49:48.561Z,101809.38
2023-05-25T20:52:16.657Z,101812.91
2023-05-25T20:54:45.663Z,101811.13
2023-05-25T20:57:13.569Z,101820.03
2023-05-25T20:59:41.552Z,101822.72
2023-05-25T21:02:09.654Z,101819.13
2023-05-25T21:04:37.433Z,101825.34
2023-05-25T21:07:05.659Z,101819.09
2023-05-25T21:09:33.435Z,101821.78
2023-05-25T21:12:03.524Z,101819.97
2023-05-25T21:14:31.308Z,101825.31
2023-05-25T21:16:58.979Z,101816.41
2023-05-25T21:19:27.019Z,101817.28
2023-05-25T21:21:54.997Z,101818.19
2023-05-25T21:24:22.965Z,101823.50
2023-05-25T21:26:50.694Z,101820.81
2023-05-25T21:29:19.834Z,101820.78
2023-05-25T21:31:47.660Z,101823.44
2023-05-25T21:34:15.503Z,101831.41
2023-05-25T21:36:43.437Z,101826.97
2023-05-25T21:39:11.490Z,101830.47
2023-05-25T21:41:39.397Z,101832.22
2023-05-25T21:44:07.196Z,101829.56
2023-05-25T21:46:36.426Z,101841.97
2023-05-25T21:49:04.248Z,101826.78
2023-05-25T21:51:32.904Z,101842.78
2023-05-25T21:54:01.160Z,101842.75
2023-05-25T21:56:29.125Z,101842.72
2023-05-25T21:58:56.857Z,101848.03
2023-05-25T22:01:24.820Z,101858.69
2023-05-25T22:03:54.014Z,101860.44
2023-05-25T22:06:21.772Z,101850.63
2023-05-25T22:08:49.797Z,101855.94
2023-05-25T22:11:17.679Z,101856.78
2023-05-25T22:13:48.451Z,101858.53
2023-05-25T22:16:16.388Z,101855.81
2023-05-25T22:18:46.689Z,101858.44
2023-05-25T22:21:17.445Z,101861.09
2023-05-25T22:23:45.312Z,101867.28
2023-05-25T22:26:13.270Z,101867.25
2023-05-25T22:28:44.199Z,101865.41
2023-05-25T22:31:12.609Z,101868.06
2023-05-25T22:33:43.443Z,101865.34
2023-05-25T22:36:15.057Z,101857.31
2023-05-25T22:38:47.130Z,101865.28
2023-05-25T22:41:16.774Z,101866.97
2023-05-25T22:43:44.723Z,101876.69
2023-05-25T22:46:12.763Z,101874.03
2023-05-25T22:48:40.741Z,101877.47
2023-05-25T22:51:10.726Z,101881.00
2023-05-25T22:53:40.773Z,101879.16
2023-05-25T22:56:10.284Z,101879.13
2023-05-25T22:58:40.210Z,101877.28
2023-05-25T23:01:07.980Z,101874.63
2023-05-25T23:03:36.331Z,101884.28
2023-05-25T23:06:04.397Z,101877.16
2023-05-25T23:08:32.198Z,101874.44
2023-05-25T23:10:59.994Z,101882.41
2023-05-25T23:13:29.385Z,101880.59
2023-05-25T23:15:57.309Z,101874.31
2023-05-25T23:18:25.071Z,101881.38
2023-05-25T23:20:52.776Z,101872.50
2023-05-25T23:23:20.758Z,101869.81
2023-05-25T23:25:48.519Z,101872.44
2023-05-25T23:28:16.314Z,101871.50
2023-05-25T23:30:45.615Z,101877.66
2023-05-25T23:33:13.337Z,101888.25
2023-05-25T23:35:41.076Z,101891.69
2023-05-25T23:38:09.098Z,101885.41
2023-05-25T23:40:36.825Z,101882.72
2023-05-25T23:43:05.780Z,101888.84
2023-05-25T23:45:33.710Z,101880.81
2023-05-25T23:48:02.944Z,101886.94
2023-05-25T23:50:31.022Z,101886.91
2023-05-25T23:52:58.715Z,101884.19
2023-05-25T23:55:26.375Z,101895.63
2023-05-25T23:57:54.229Z,101892.03
